Terminal Aerodrome Forecast
Issued by NWS

Home | Current Version | Previous Version | Text Only | Print | Product List | Glossary On
Versions: 1 2 3 4 5 6 7 8 9 10 11 12 13
000
FTUS45 KPIH 282321
TAFSUN
TAF
KSUN 282321Z 2900/2924 13008KT P6SM VCTS SCT120CB BKN150
     FM290300 VRB06KT P6SM VCSH SCT100 BKN120
     FM291900 24012G22KT P6SM SCT150=

USA.gov is the U.S. government's official web portal to all federal, state and local government web resources and services.